sensor_id;sensor_type;location;lat;lon;timestamp;temperature;humidity
1005;DHT22;491;53.480;10.174;2022-08-25T00:02:07;20.30;99.90
1005;DHT22;491;53.480;10.174;2022-08-25T00:04:33;20.20;99.90
1005;DHT22;491;53.480;10.174;2022-08-25T00:07:00;20.20;99.90
1005;DHT22;491;53.480;10.174;2022-08-25T00:09:27;20.20;99.90
1005;DHT22;491;53.480;10.174;2022-08-25T00:11:53;20.10;99.90
1005;DHT22;491;53.480;10.174;2022-08-25T00:14:22;20.10;99.90
1005;DHT22;491;53.480;10.174;2022-08-25T00:16:49;20.10;99.90
1005;DHT22;491;53.480;10.174;2022-08-25T00:19:21;20.10;99.90
1005;DHT22;491;53.480;10.174;2022-08-25T00:21:47;20.10;99.90
1005;DHT22;491;53.480;10.174;2022-08-25T00:24:15;20.10;99.90
1005;DHT22;491;53.480;10.174;2022-08-25T00:26:43;20.10;99.90
1005;DHT22;491;53.480;10.174;2022-08-25T00:29:10;20.10;99.90
1005;DHT22;491;53.480;10.174;2022-08-25T00:31:37;20.00;99.90
1005;DHT22;491;53.480;10.174;2022-08-25T00:34:03;20.00;99.90
1005;DHT22;491;53.480;10.174;2022-08-25T00:36:32;20.00;99.90
1005;DHT22;491;53.480;10.174;2022-08-25T00:38:57;20.00;99.90
1005;DHT22;491;53.480;10.174;2022-08-25T00:41:24;19.90;99.90
1005;DHT22;491;53.480;10.174;2022-08-25T00:44:13;19.90;99.90
1005;DHT22;491;53.480;10.174;2022-08-25T00:46:53;19.80;99.90
1005;DHT22;491;53.480;10.174;2022-08-25T00:49:52;19.80;99.90
1005;DHT22;491;53.480;10.174;2022-08-25T00:52:22;19.80;99.90
1005;DHT22;491;53.480;10.174;2022-08-25T00:54:53;19.70;99.90
1005;DHT22;491;53.480;10.174;2022-08-25T00:57:24;19.70;99.90
1005;DHT22;491;53.480;10.174;2022-08-25T00:59:50;19.70;99.90
1005;DHT22;491;53.480;10.174;2022-08-25T01:02:16;19.70;99.90
1005;DHT22;491;53.480;10.174;2022-08-25T01:04:42;19.60;99.90
1005;DHT22;491;53.480;10.174;2022-08-25T01:07:08;19.60;99.90
1005;DHT22;491;53.480;10.174;2022-08-25T01:09:34;19.60;99.90
1005;DHT22;491;53.480;10.174;2022-08-25T01:12:00;19.50;99.90
1005;DHT22;491;53.480;10.174;2022-08-25T01:14:27;19.50;99.90
1005;DHT22;491;53.480;10.174;2022-08-25T01:16:53;19.50;99.90
1005;DHT22;491;53.480;10.174;2022-08-25T01:19:19;19.50;99.90
1005;DHT22;491;53.480;10.174;2022-08-25T01:21:48;19.40;99.90
1005;DHT22;491;53.480;10.174;2022-08-25T01:24:53;19.40;99.90
1005;DHT22;491;53.480;10.174;2022-08-25T01:27:21;19.30;99.90
1005;DHT22;491;53.480;10.174;2022-08-25T01:29:47;19.20;99.90
1005;DHT22;491;53.480;10.174;2022-08-25T01:32:13;19.20;99.90
1005;DHT22;491;53.480;10.174;2022-08-25T01:34:42;19.20;99.90
1005;DHT22;491;53.480;10.174;2022-08-25T01:37:09;19.20;99.90
1005;DHT22;491;53.480;10.174;2022-08-25T01:39:36;19.00;99.90
1005;DHT22;491;53.480;10.174;2022-08-25T01:42:16;19.00;99.90
1005;DHT22;491;53.480;10.174;2022-08-25T01:44:44;18.90;99.90
1005;DHT22;491;53.480;10.174;2022-08-25T01:47:11;19.00;99.90
1005;DHT22;491;53.480;10.174;2022-08-25T01:49:37;19.00;99.90
1005;DHT22;491;53.480;10.174;2022-08-25T01:52:27;19.00;99.90
1005;DHT22;491;53.480;10.174;2022-08-25T01:54:54;18.90;99.90
1005;DHT22;491;53.480;10.174;2022-08-25T01:57:19;19.00;99.90
1005;DHT22;491;53.480;10.174;2022-08-25T01:59:46;19.00;99.90
1005;DHT22;491;53.480;10.174;2022-08-25T02:02:12;19.00;99.90
1005;DHT22;491;53.480;10.174;2022-08-25T02:04:38;18.90;99.90
1005;DHT22;491;53.480;10.174;2022-08-25T02:07:05;18.90;99.90
1005;DHT22;491;53.480;10.174;2022-08-25T02:09:32;18.90;99.90
1005;DHT22;491;53.480;10.174;2022-08-25T02:11:58;18.80;99.90
1005;DHT22;491;53.480;10.174;2022-08-25T02:14:24;18.80;99.90
1005;DHT22;491;53.480;10.174;2022-08-25T02:16:52;18.80;99.90
1005;DHT22;491;53.480;10.174;2022-08-25T02:19:19;18.80;99.90
1005;DHT22;491;53.480;10.174;2022-08-25T02:21:45;18.90;99.90
1005;DHT22;491;53.480;10.174;2022-08-25T02:24:11;18.80;99.90
1005;DHT22;491;53.480;10.174;2022-08-25T02:26:37;18.80;99.90
1005;DHT22;491;53.480;10.174;2022-08-25T02:29:03;18.70;99.90
1005;DHT22;491;53.480;10.174;2022-08-25T02:31:29;18.70;99.90
1005;DHT22;491;53.480;10.174;2022-08-25T02:33:55;18.70;99.90
1005;DHT22;491;53.480;10.174;2022-08-25T02:36:21;18.70;99.90
1005;DHT22;491;53.480;10.174;2022-08-25T02:38:48;18.80;99.90
1005;DHT22;491;53.480;10.174;2022-08-25T02:41:16;18.70;99.90
1005;DHT22;491;53.480;10.174;2022-08-25T02:43:44;18.70;99.90
1005;DHT22;491;53.480;10.174;2022-08-25T02:46:11;18.60;99.90
1005;DHT22;491;53.480;10.174;2022-08-25T02:48:37;18.70;99.90
1005;DHT22;491;53.480;10.174;2022-08-25T02:51:06;18.60;99.90
1005;DHT22;491;53.480;10.174;2022-08-25T02:53:33;18.60;99.90
1005;DHT22;491;53.480;10.174;2022-08-25T02:55:59;18.60;99.90
1005;DHT22;491;53.480;10.174;2022-08-25T02:58:25;18.50;99.90
1005;DHT22;491;53.480;10.174;2022-08-25T03:00:51;18.50;99.90
1005;DHT22;491;53.480;10.174;2022-08-25T03:03:18;18.50;99.90
1005;DHT22;491;53.480;10.174;2022-08-25T03:05:44;18.50;99.90
1005;DHT22;491;53.480;10.174;2022-08-25T03:08:10;18.40;99.90
1005;DHT22;491;53.480;10.174;2022-08-25T03:10:36;18.40;99.90
1005;DHT22;491;53.480;10.174;2022-08-25T03:13:01;18.40;99.90
1005;DHT22;491;53.480;10.174;2022-08-25T03:15:27;18.40;99.90
1005;DHT22;491;53.480;10.174;2022-08-25T03:17:54;18.30;99.90
1005;DHT22;491;53.480;10.174;2022-08-25T03:20:21;18.20;99.90
1005;DHT22;491;53.480;10.174;2022-08-25T03:22:47;18.20;99.90
1005;DHT22;491;53.480;10.174;2022-08-25T03:25:13;18.20;99.90
1005;DHT22;491;53.480;10.174;2022-08-25T03:27:57;18.20;99.90
1005;DHT22;491;53.480;10.174;2022-08-25T03:30:23;18.10;99.90
1005;DHT22;491;53.480;10.174;2022-08-25T03:32:48;18.00;99.90
1005;DHT22;491;53.480;10.174;2022-08-25T03:35:14;17.90;99.90
1005;DHT22;491;53.480;10.174;2022-08-25T03:37:39;17.90;99.90
1005;DHT22;491;53.480;10.174;2022-08-25T03:40:07;17.80;99.90
1005;DHT22;491;53.480;10.174;2022-08-25T03:42:34;17.80;99.90
1005;DHT22;491;53.480;10.174;2022-08-25T03:45:02;17.80;99.90
1005;DHT22;491;53.480;10.174;2022-08-25T03:47:27;17.80;99.90
1005;DHT22;491;53.480;10.174;2022-08-25T03:49:53;17.80;99.90
1005;DHT22;491;53.480;10.174;2022-08-25T03:52:19;17.80;99.90
1005;DHT22;491;53.480;10.174;2022-08-25T03:54:44;17.80;99.90
1005;DHT22;491;53.480;10.174;2022-08-25T03:57:10;17.80;99.90
1005;DHT22;491;53.480;10.174;2022-08-25T03:59:36;17.80;99.90
1005;DHT22;491;53.480;10.174;2022-08-25T04:02:05;17.70;99.90
1005;DHT22;491;53.480;10.174;2022-08-25T04:04:31;17.70;99.90
1005;DHT22;491;53.480;10.174;2022-08-25T04:06:57;17.70;99.90
1005;DHT22;491;53.480;10.174;2022-08-25T04:09:24;17.60;99.90
1005;DHT22;491;53.480;10.174;2022-08-25T04:11:50;17.60;99.90
1005;DHT22;491;53.480;10.174;2022-08-25T04:14:16;17.70;99.90
1005;DHT22;491;53.480;10.174;2022-08-25T04:16:41;17.60;99.90
1005;DHT22;491;53.480;10.174;2022-08-25T04:19:10;17.50;99.90
1005;DHT22;491;53.480;10.174;2022-08-25T04:21:37;17.50;99.90
1005;DHT22;491;53.480;10.174;2022-08-25T04:24:04;17.50;99.90
1005;DHT22;491;53.480;10.174;2022-08-25T04:26:36;17.50;99.90
1005;DHT22;491;53.480;10.174;2022-08-25T04:29:04;17.40;99.90
1005;DHT22;491;53.480;10.174;2022-08-25T04:31:30;17.60;99.90
1005;DHT22;491;53.480;10.174;2022-08-25T04:33:56;17.60;99.90
1005;DHT22;491;53.480;10.174;2022-08-25T04:36:43;17.60;99.90
1005;DHT22;491;53.480;10.174;2022-08-25T04:39:09;17.90;99.90
1005;DHT22;491;53.480;10.174;2022-08-25T04:41:34;18.40;99.90
1005;DHT22;491;53.480;10.174;2022-08-25T04:44:00;18.40;99.90
1005;DHT22;491;53.480;10.174;2022-08-25T04:46:29;18.40;99.90
1005;DHT22;491;53.480;10.174;2022-08-25T04:48:57;18.40;99.90
1005;DHT22;491;53.480;10.174;2022-08-25T04:51:25;18.70;99.90
1005;DHT22;491;53.480;10.174;2022-08-25T04:53:52;18.20;99.90
1005;DHT22;491;53.480;10.174;2022-08-25T04:56:20;17.90;99.90
1005;DHT22;491;53.480;10.174;2022-08-25T04:58:46;17.80;99.90
1005;DHT22;491;53.480;10.174;2022-08-25T05:01:14;17.80;99.90
1005;DHT22;491;53.480;10.174;2022-08-25T05:03:40;17.70;99.90
1005;DHT22;491;53.480;10.174;2022-08-25T05:06:06;17.70;99.90
1005;DHT22;491;53.480;10.174;2022-08-25T05:08:32;17.80;99.90
1005;DHT22;491;53.480;10.174;2022-08-25T05:11:03;17.80;99.90
1005;DHT22;491;53.480;10.174;2022-08-25T05:13:29;17.80;99.90
1005;DHT22;491;53.480;10.174;2022-08-25T05:15:56;17.80;99.90
1005;DHT22;491;53.480;10.174;2022-08-25T05:18:24;17.90;99.90
1005;DHT22;491;53.480;10.174;2022-08-25T05:20:51;17.90;99.90
1005;DHT22;491;53.480;10.174;2022-08-25T05:23:18;18.00;99.90
1005;DHT22;491;53.480;10.174;2022-08-25T05:25:44;18.00;99.90
1005;DHT22;491;53.480;10.174;2022-08-25T05:28:10;18.10;99.90
1005;DHT22;491;53.480;10.174;2022-08-25T05:30:37;18.20;99.90
1005;DHT22;491;53.480;10.174;2022-08-25T05:33:03;18.30;99.90
1005;DHT22;491;53.480;10.174;2022-08-25T05:35:29;18.40;99.90
1005;DHT22;491;53.480;10.174;2022-08-25T05:37:54;18.40;99.90
1005;DHT22;491;53.480;10.174;2022-08-25T05:40:22;18.50;99.90
1005;DHT22;491;53.480;10.174;2022-08-25T05:42:47;18.50;99.90
1005;DHT22;491;53.480;10.174;2022-08-25T05:45:13;18.60;99.90
1005;DHT22;491;53.480;10.174;2022-08-25T05:47:38;18.60;99.90
1005;DHT22;491;53.480;10.174;2022-08-25T05:50:05;18.50;99.90
1005;DHT22;491;53.480;10.174;2022-08-25T05:52:31;18.50;99.90
1005;DHT22;491;53.480;10.174;2022-08-25T05:54:57;18.40;99.90
1005;DHT22;491;53.480;10.174;2022-08-25T05:57:22;18.50;99.90
1005;DHT22;491;53.480;10.174;2022-08-25T05:59:48;18.50;99.90
1005;DHT22;491;53.480;10.174;2022-08-25T06:02:13;18.50;99.90
1005;DHT22;491;53.480;10.174;2022-08-25T06:04:58;18.50;99.90
1005;DHT22;491;53.480;10.174;2022-08-25T06:07:23;18.60;99.90
1005;DHT22;491;53.480;10.174;2022-08-25T06:09:49;18.50;99.90
1005;DHT22;491;53.480;10.174;2022-08-25T06:12:15;18.60;99.90
1005;DHT22;491;53.480;10.174;2022-08-25T06:14:41;18.50;99.90
1005;DHT22;491;53.480;10.174;2022-08-25T06:17:07;18.50;99.90
1005;DHT22;491;53.480;10.174;2022-08-25T06:19:32;18.70;99.90
1005;DHT22;491;53.480;10.174;2022-08-25T06:21:58;18.60;99.90
1005;DHT22;491;53.480;10.174;2022-08-25T06:24:25;18.60;99.90
1005;DHT22;491;53.480;10.174;2022-08-25T06:26:51;18.60;99.90
1005;DHT22;491;53.480;10.174;2022-08-25T06:29:17;18.60;99.90
1005;DHT22;491;53.480;10.174;2022-08-25T06:31:43;18.70;99.90
1005;DHT22;491;53.480;10.174;2022-08-25T06:34:10;18.90;99.90
1005;DHT22;491;53.480;10.174;2022-08-25T06:36:35;18.90;99.90
1005;DHT22;491;53.480;10.174;2022-08-25T06:39:01;18.80;99.90
1005;DHT22;491;53.480;10.174;2022-08-25T06:41:27;18.90;99.90
1005;DHT22;491;53.480;10.174;2022-08-25T06:43:53;19.00;99.90
1005;DHT22;491;53.480;10.174;2022-08-25T06:46:22;19.20;99.90
1005;DHT22;491;53.480;10.174;2022-08-25T06:48:48;19.10;99.90
1005;DHT22;491;53.480;10.174;2022-08-25T06:51:16;19.30;99.90
1005;DHT22;491;53.480;10.174;2022-08-25T06:53:44;19.40;99.90
1005;DHT22;491;53.480;10.174;2022-08-25T06:56:11;19.50;99.90
1005;DHT22;491;53.480;10.174;2022-08-25T06:58:36;19.60;99.90
1005;DHT22;491;53.480;10.174;2022-08-25T07:01:10;19.70;99.90
1005;DHT22;491;53.480;10.174;2022-08-25T07:03:36;19.70;99.90
1005;DHT22;491;53.480;10.174;2022-08-25T07:06:03;19.70;99.90
1005;DHT22;491;53.480;10.174;2022-08-25T07:08:29;19.80;99.90
1005;DHT22;491;53.480;10.174;2022-08-25T07:10:55;19.70;99.90
1005;DHT22;491;53.480;10.174;2022-08-25T07:13:21;19.70;99.90
1005;DHT22;491;53.480;10.174;2022-08-25T07:15:46;19.80;99.90
1005;DHT22;491;53.480;10.174;2022-08-25T07:18:12;19.80;99.90
1005;DHT22;491;53.480;10.174;2022-08-25T07:20:38;19.90;99.90
1005;DHT22;491;53.480;10.174;2022-08-25T07:23:05;20.00;99.90
1005;DHT22;491;53.480;10.174;2022-08-25T07:25:32;19.90;99.90
1005;DHT22;491;53.480;10.174;2022-08-25T07:27:58;20.00;99.90
1005;DHT22;491;53.480;10.174;2022-08-25T07:30:24;20.10;99.90
1005;DHT22;491;53.480;10.174;2022-08-25T07:32:49;20.00;99.90
1005;DHT22;491;53.480;10.174;2022-08-25T07:35:15;20.10;99.90
1005;DHT22;491;53.480;10.174;2022-08-25T07:37:50;20.30;99.90
1005;DHT22;491;53.480;10.174;2022-08-25T07:40:21;20.20;99.90
1005;DHT22;491;53.480;10.174;2022-08-25T07:42:49;20.10;99.90
1005;DHT22;491;53.480;10.174;2022-08-25T07:45:15;20.20;99.90
1005;DHT22;491;53.480;10.174;2022-08-25T07:47:41;20.30;99.90
1005;DHT22;491;53.480;10.174;2022-08-25T07:50:09;20.20;99.90
1005;DHT22;491;53.480;10.174;2022-08-25T07:52:36;20.20;99.90
1005;DHT22;491;53.480;10.174;2022-08-25T07:55:02;20.20;99.90
1005;DHT22;491;53.480;10.174;2022-08-25T07:57:27;20.20;99.90
1005;DHT22;491;53.480;10.174;2022-08-25T07:59:54;20.30;99.90
1005;DHT22;491;53.480;10.174;2022-08-25T08:02:19;20.30;99.90
1005;DHT22;491;53.480;10.174;2022-08-25T08:04:47;20.50;99.90
1005;DHT22;491;53.480;10.174;2022-08-25T08:07:16;20.60;99.90
1005;DHT22;491;53.480;10.174;2022-08-25T08:09:41;20.60;99.90
1005;DHT22;491;53.480;10.174;2022-08-25T08:12:07;20.70;99.90
1005;DHT22;491;53.480;10.174;2022-08-25T08:14:33;20.70;99.90
1005;DHT22;491;53.480;10.174;2022-08-25T08:17:06;20.70;99.90
1005;DHT22;491;53.480;10.174;2022-08-25T08:19:32;20.70;99.90
1005;DHT22;491;53.480;10.174;2022-08-25T08:21:57;20.90;99.90
1005;DHT22;491;53.480;10.174;2022-08-25T08:24:23;21.00;99.90
1005;DHT22;491;53.480;10.174;2022-08-25T08:26:48;21.00;99.90
1005;DHT22;491;53.480;10.174;2022-08-25T08:29:14;21.00;99.90
1005;DHT22;491;53.480;10.174;2022-08-25T08:31:40;20.80;99.90
1005;DHT22;491;53.480;10.174;2022-08-25T08:34:06;20.80;99.90
1005;DHT22;491;53.480;10.174;2022-08-25T08:36:32;20.70;99.90
1005;DHT22;491;53.480;10.174;2022-08-25T08:38:57;20.60;99.90
1005;DHT22;491;53.480;10.174;2022-08-25T08:41:31;20.80;99.90
1005;DHT22;491;53.480;10.174;2022-08-25T08:50:28;20.90;99.90
1005;DHT22;491;53.480;10.174;2022-08-25T08:55:47;20.90;99.90
1005;DHT22;491;53.480;10.174;2022-08-25T08:58:20;21.10;99.90
1005;DHT22;491;53.480;10.174;2022-08-25T09:00:51;21.30;99.90
1005;DHT22;491;53.480;10.174;2022-08-25T09:03:40;21.40;99.90
1005;DHT22;491;53.480;10.174;2022-08-25T09:06:30;21.60;99.90
1005;DHT22;491;53.480;10.174;2022-08-25T09:08:57;21.30;99.90
1005;DHT22;491;53.480;10.174;2022-08-25T09:14:17;21.70;99.90
1005;DHT22;491;53.480;10.174;2022-08-25T09:19:48;22.60;99.90
1005;DHT22;491;53.480;10.174;2022-08-25T09:22:38;23.60;99.90
1005;DHT22;491;53.480;10.174;2022-08-25T09:30:38;29.30;99.90
1005;DHT22;491;53.480;10.174;2022-08-25T09:33:05;29.90;99.90
1005;DHT22;491;53.480;10.174;2022-08-25T09:35:33;30.40;99.90
1005;DHT22;491;53.480;10.174;2022-08-25T09:38:05;30.30;99.90
1005;DHT22;491;53.480;10.174;2022-08-25T09:40:34;29.90;99.90
1005;DHT22;491;53.480;10.174;2022-08-25T09:43:01;30.10;99.90
1005;DHT22;491;53.480;10.174;2022-08-25T09:45:45;29.00;99.90
1005;DHT22;491;53.480;10.174;2022-08-25T09:48:26;30.70;99.90
1005;DHT22;491;53.480;10.174;2022-08-25T09:50:57;30.70;99.90
1005;DHT22;491;53.480;10.174;2022-08-25T09:53:24;31.20;96.40
1005;DHT22;491;53.480;10.174;2022-08-25T09:56:01;31.10;88.40
1005;DHT22;491;53.480;10.174;2022-08-25T09:58:30;32.20;90.30
1005;DHT22;491;53.480;10.174;2022-08-25T10:01:05;32.20;81.90
1005;DHT22;491;53.480;10.174;2022-08-25T10:03:31;32.10;57.60
1005;DHT22;491;53.480;10.174;2022-08-25T10:06:07;32.50;53.20
1005;DHT22;491;53.480;10.174;2022-08-25T10:08:40;32.30;47.20
1005;DHT22;491;53.480;10.174;2022-08-25T10:11:31;32.30;53.30
1005;DHT22;491;53.480;10.174;2022-08-25T10:16:47;32.70;49.00
1005;DHT22;491;53.480;10.174;2022-08-25T10:19:28;33.00;51.00
1005;DHT22;491;53.480;10.174;2022-08-25T10:22:21;32.70;23.00
1005;DHT22;491;53.480;10.174;2022-08-25T10:24:49;32.20;19.70
1005;DHT22;491;53.480;10.174;2022-08-25T10:27:37;32.90;28.70
1005;DHT22;491;53.480;10.174;2022-08-25T10:30:29;32.50;18.50
1005;DHT22;491;53.480;10.174;2022-08-25T10:33:27;32.50;15.20
1005;DHT22;491;53.480;10.174;2022-08-25T10:36:09;33.00;14.40
1005;DHT22;491;53.480;10.174;2022-08-25T10:38:56;33.60;17.00
1005;DHT22;491;53.480;10.174;2022-08-25T10:50:32;33.50;6.80
1005;DHT22;491;53.480;10.174;2022-08-25T10:56:12;31.00;16.60
1005;DHT22;491;53.480;10.174;2022-08-25T10:58:59;30.10;9.30
1005;DHT22;491;53.480;10.174;2022-08-25T11:05:07;32.10;6.10
1005;DHT22;491;53.480;10.174;2022-08-25T11:07:36;32.90;1.00
1005;DHT22;491;53.480;10.174;2022-08-25T11:10:07;31.70;1.00
1005;DHT22;491;53.480;10.174;2022-08-25T11:12:39;32.80;9.50
1005;DHT22;491;53.480;10.174;2022-08-25T11:15:15;31.80;1.00
1005;DHT22;491;53.480;10.174;2022-08-25T11:18:04;30.00;1.00
1005;DHT22;491;53.480;10.174;2022-08-25T11:23:40;30.40;11.90
1005;DHT22;491;53.480;10.174;2022-08-25T11:26:18;32.50;1.80
1005;DHT22;491;53.480;10.174;2022-08-25T11:29:13;32.70;1.00
1005;DHT22;491;53.480;10.174;2022-08-25T11:31:43;32.20;1.00
1005;DHT22;491;53.480;10.174;2022-08-25T11:34:11;32.60;1.00
1005;DHT22;491;53.480;10.174;2022-08-25T11:40:25;31.10;1.00
1005;DHT22;491;53.480;10.174;2022-08-25T11:43:21;31.00;1.00
1005;DHT22;491;53.480;10.174;2022-08-25T11:46:28;29.50;1.00
1005;DHT22;491;53.480;10.174;2022-08-25T11:51:57;28.60;2.00
1005;DHT22;491;53.480;10.174;2022-08-25T11:54:26;28.80;6.60
1005;DHT22;491;53.480;10.174;2022-08-25T11:57:02;29.70;1.00
1005;DHT22;491;53.480;10.174;2022-08-25T12:05:02;28.30;10.70
1005;DHT22;491;53.480;10.174;2022-08-25T12:11:00;28.50;11.90
1005;DHT22;491;53.480;10.174;2022-08-25T12:13:47;28.30;19.30
1005;DHT22;491;53.480;10.174;2022-08-25T12:30:15;30.40;7.80
1005;DHT22;491;53.480;10.174;2022-08-25T12:36:00;31.80;1.00
1005;DHT22;491;53.480;10.174;2022-08-25T12:38:30;32.50;1.00
1005;DHT22;491;53.480;10.174;2022-08-25T12:43:35;32.10;1.00
1005;DHT22;491;53.480;10.174;2022-08-25T12:54:15;28.60;1.00
1005;DHT22;491;53.480;10.174;2022-08-25T12:56:44;28.00;1.00
1005;DHT22;491;53.480;10.174;2022-08-25T12:59:15;28.10;1.00
1005;DHT22;491;53.480;10.174;2022-08-25T13:04:51;29.20;1.00
1005;DHT22;491;53.480;10.174;2022-08-25T13:10:40;31.60;1.00
1005;DHT22;491;53.480;10.174;2022-08-25T13:13:14;31.10;1.00
1005;DHT22;491;53.480;10.174;2022-08-25T13:15:44;30.10;1.00
1005;DHT22;491;53.480;10.174;2022-08-25T13:18:21;30.60;1.00
1005;DHT22;491;53.480;10.174;2022-08-25T13:20:50;29.90;1.00
1005;DHT22;491;53.480;10.174;2022-08-25T13:23:23;28.80;1.00
1005;DHT22;491;53.480;10.174;2022-08-25T13:25:51;29.30;1.00
1005;DHT22;491;53.480;10.174;2022-08-25T13:28:22;28.80;1.00
1005;DHT22;491;53.480;10.174;2022-08-25T13:30:56;28.60;1.00
1005;DHT22;491;53.480;10.174;2022-08-25T13:33:22;28.60;1.00
1005;DHT22;491;53.480;10.174;2022-08-25T13:35:56;28.60;1.00
1005;DHT22;491;53.480;10.174;2022-08-25T13:38:42;28.50;1.00
1005;DHT22;491;53.480;10.174;2022-08-25T13:41:08;28.90;1.00
1005;DHT22;491;53.480;10.174;2022-08-25T13:43:36;29.20;1.00
1005;DHT22;491;53.480;10.174;2022-08-25T13:46:03;29.30;1.00
1005;DHT22;491;53.480;10.174;2022-08-25T13:48:35;29.50;1.00
1005;DHT22;491;53.480;10.174;2022-08-25T13:51:22;29.30;1.00
1005;DHT22;491;53.480;10.174;2022-08-25T13:53:55;29.20;1.00
1005;DHT22;491;53.480;10.174;2022-08-25T13:56:31;29.40;1.00
1005;DHT22;491;53.480;10.174;2022-08-25T13:58:58;29.80;1.00
1005;DHT22;491;53.480;10.174;2022-08-25T14:01:27;29.90;1.00
1005;DHT22;491;53.480;10.174;2022-08-25T14:03:55;29.40;1.00
1005;DHT22;491;53.480;10.174;2022-08-25T14:06:26;29.30;1.00
1005;DHT22;491;53.480;10.174;2022-08-25T14:14:00;29.10;1.00
1005;DHT22;491;53.480;10.174;2022-08-25T14:16:26;29.70;1.00
1005;DHT22;491;53.480;10.174;2022-08-25T14:18:54;30.00;1.00
1005;DHT22;491;53.480;10.174;2022-08-25T14:21:24;29.60;1.00
1005;DHT22;491;53.480;10.174;2022-08-25T14:23:52;29.30;1.00
1005;DHT22;491;53.480;10.174;2022-08-25T14:26:18;28.90;1.00
1005;DHT22;491;53.480;10.174;2022-08-25T14:28:44;28.60;1.00
1005;DHT22;491;53.480;10.174;2022-08-25T14:31:23;28.40;1.00
1005;DHT22;491;53.480;10.174;2022-08-25T14:34:00;28.30;1.00
1005;DHT22;491;53.480;10.174;2022-08-25T14:36:28;28.70;1.00
1005;DHT22;491;53.480;10.174;2022-08-25T14:38:54;29.00;1.00
1005;DHT22;491;53.480;10.174;2022-08-25T14:41:20;29.00;1.00
1005;DHT22;491;53.480;10.174;2022-08-25T14:43:46;29.10;1.00
1005;DHT22;491;53.480;10.174;2022-08-25T14:46:19;28.90;1.00
1005;DHT22;491;53.480;10.174;2022-08-25T14:48:49;28.80;1.00
1005;DHT22;491;53.480;10.174;2022-08-25T14:51:16;28.80;1.00
1005;DHT22;491;53.480;10.174;2022-08-25T14:53:42;28.80;1.00
1005;DHT22;491;53.480;10.174;2022-08-25T14:56:08;28.60;1.00
1005;DHT22;491;53.480;10.174;2022-08-25T14:58:34;28.50;1.00
1005;DHT22;491;53.480;10.174;2022-08-25T15:01:00;28.50;1.00
1005;DHT22;491;53.480;10.174;2022-08-25T15:03:33;28.40;1.00
1005;DHT22;491;53.480;10.174;2022-08-25T15:06:00;28.60;1.00
1005;DHT22;491;53.480;10.174;2022-08-25T15:08:26;28.70;1.00
1005;DHT22;491;53.480;10.174;2022-08-25T15:11:10;28.60;1.00
1005;DHT22;491;53.480;10.174;2022-08-25T15:13:35;28.40;1.00
1005;DHT22;491;53.480;10.174;2022-08-25T15:16:06;28.30;1.00
1005;DHT22;491;53.480;10.174;2022-08-25T15:18:33;28.20;1.00
1005;DHT22;491;53.480;10.174;2022-08-25T15:20:58;28.20;1.00
1005;DHT22;491;53.480;10.174;2022-08-25T15:23:24;28.40;1.00
1005;DHT22;491;53.480;10.174;2022-08-25T15:25:50;28.50;1.00
1005;DHT22;491;53.480;10.174;2022-08-25T15:28:18;28.40;1.00
1005;DHT22;491;53.480;10.174;2022-08-25T15:30:44;28.40;1.00
1005;DHT22;491;53.480;10.174;2022-08-25T15:33:09;28.30;1.00
1005;DHT22;491;53.480;10.174;2022-08-25T15:35:35;28.30;1.00
1005;DHT22;491;53.480;10.174;2022-08-25T15:38:01;28.20;1.00
1005;DHT22;491;53.480;10.174;2022-08-25T15:40:27;28.10;1.00
1005;DHT22;491;53.480;10.174;2022-08-25T15:42:53;28.10;1.00
1005;DHT22;491;53.480;10.174;2022-08-25T15:45:18;28.20;1.00
1005;DHT22;491;53.480;10.174;2022-08-25T15:47:44;28.10;1.00
1005;DHT22;491;53.480;10.174;2022-08-25T15:50:14;28.10;1.00
1005;DHT22;491;53.480;10.174;2022-08-25T15:52:41;27.90;1.00
1005;DHT22;491;53.480;10.174;2022-08-25T15:55:08;27.90;1.00
1005;DHT22;491;53.480;10.174;2022-08-25T15:57:33;27.90;1.00
1005;DHT22;491;53.480;10.174;2022-08-25T15:59:59;27.80;1.00
1005;DHT22;491;53.480;10.174;2022-08-25T16:02:25;27.70;1.00
1005;DHT22;491;53.480;10.174;2022-08-25T16:04:50;27.70;1.00
1005;DHT22;491;53.480;10.174;2022-08-25T16:07:18;27.50;1.00
1005;DHT22;491;53.480;10.174;2022-08-25T16:09:44;27.50;1.00
1005;DHT22;491;53.480;10.174;2022-08-25T16:12:09;27.50;1.00
1005;DHT22;491;53.480;10.174;2022-08-25T16:14:36;27.60;1.00
1005;DHT22;491;53.480;10.174;2022-08-25T16:17:02;27.70;1.00
1005;DHT22;491;53.480;10.174;2022-08-25T16:19:28;27.80;1.00
1005;DHT22;491;53.480;10.174;2022-08-25T16:21:54;27.70;1.00
1005;DHT22;491;53.480;10.174;2022-08-25T16:24:19;27.70;1.00
1005;DHT22;491;53.480;10.174;2022-08-25T16:26:45;27.70;1.00
1005;DHT22;491;53.480;10.174;2022-08-25T16:29:12;27.70;1.00
1005;DHT22;491;53.480;10.174;2022-08-25T16:31:39;27.60;1.00
1005;DHT22;491;53.480;10.174;2022-08-25T16:34:05;27.60;1.00
1005;DHT22;491;53.480;10.174;2022-08-25T16:36:31;27.60;1.00
1005;DHT22;491;53.480;10.174;2022-08-25T16:38:56;27.70;1.00
1005;DHT22;491;53.480;10.174;2022-08-25T16:41:24;27.70;1.00
1005;DHT22;491;53.480;10.174;2022-08-25T16:43:51;27.70;1.00
1005;DHT22;491;53.480;10.174;2022-08-25T16:46:19;27.60;1.00
1005;DHT22;491;53.480;10.174;2022-08-25T16:48:45;27.50;1.00
1005;DHT22;491;53.480;10.174;2022-08-25T16:51:14;27.50;1.00
1005;DHT22;491;53.480;10.174;2022-08-25T16:53:40;27.50;1.00
1005;DHT22;491;53.480;10.174;2022-08-25T16:56:25;27.50;1.00
1005;DHT22;491;53.480;10.174;2022-08-25T16:58:56;27.50;1.00
1005;DHT22;491;53.480;10.174;2022-08-25T17:01:22;27.40;1.00
1005;DHT22;491;53.480;10.174;2022-08-25T17:03:53;27.40;1.00
1005;DHT22;491;53.480;10.174;2022-08-25T17:06:20;27.30;1.00
1005;DHT22;491;53.480;10.174;2022-08-25T17:08:47;27.30;3.00
1005;DHT22;491;53.480;10.174;2022-08-25T17:11:21;27.20;7.90
1005;DHT22;491;53.480;10.174;2022-08-25T17:13:50;27.00;21.20
1005;DHT22;491;53.480;10.174;2022-08-25T17:16:18;26.90;14.50
1005;DHT22;491;53.480;10.174;2022-08-25T17:18:45;27.00;17.90
1005;DHT22;491;53.480;10.174;2022-08-25T17:21:15;27.00;18.40
1005;DHT22;491;53.480;10.174;2022-08-25T17:23:42;27.00;20.50
1005;DHT22;491;53.480;10.174;2022-08-25T17:26:09;27.00;29.90
1005;DHT22;491;53.480;10.174;2022-08-25T17:28:35;26.90;33.70
1005;DHT22;491;53.480;10.174;2022-08-25T17:31:01;26.90;29.20
1005;DHT22;491;53.480;10.174;2022-08-25T17:33:27;26.80;59.00
1005;DHT22;491;53.480;10.174;2022-08-25T17:35:54;26.80;52.70
1005;DHT22;491;53.480;10.174;2022-08-25T17:38:21;26.60;91.00
1005;DHT22;491;53.480;10.174;2022-08-25T17:40:59;26.60;79.00
1005;DHT22;491;53.480;10.174;2022-08-25T17:43:27;26.50;99.90
1005;DHT22;491;53.480;10.174;2022-08-25T17:45:53;26.40;99.90
1005;DHT22;491;53.480;10.174;2022-08-25T17:48:22;26.10;99.90
1005;DHT22;491;53.480;10.174;2022-08-25T17:50:47;26.10;99.90
1005;DHT22;491;53.480;10.174;2022-08-25T17:53:13;26.10;99.90
1005;DHT22;491;53.480;10.174;2022-08-25T17:55:40;26.10;99.90
1005;DHT22;491;53.480;10.174;2022-08-25T17:58:07;25.90;99.90